createdAt,value
2018-05-13T00:00:28.894Z,88.12
2018-05-13T00:01:28.882Z,87.84
2018-05-13T00:02:28.608Z,87.74
2018-05-13T00:03:28.593Z,87.84
2018-05-13T00:04:28.850Z,87.35
2018-05-13T00:05:28.838Z,87.16
2018-05-13T00:06:28.829Z,87.35
2018-05-13T00:07:28.551Z,87.45
2018-05-13T00:08:28.800Z,87.07
2018-05-13T00:09:28.732Z,85.92
2018-05-13T00:10:28.513Z,85.25
2018-05-13T00:11:28.512Z,85.63
2018-05-13T00:12:28.494Z,86.4
2018-05-13T00:13:28.747Z,86.3
2018-05-13T00:14:28.732Z,86.4
2018-05-13T00:15:28.459Z,86.01
2018-05-13T00:16:28.712Z,85.34
2018-05-13T00:17:28.434Z,85.58
2018-05-13T00:18:28.689Z,85.82
2018-05-13T00:19:28.678Z,85.05
2018-05-13T00:20:28.404Z,86.35
2018-05-13T00:21:28.391Z,85.15
2018-05-13T00:22:28.644Z,85.44
2018-05-13T00:23:28.633Z,84
2018-05-13T00:24:28.361Z,84.19
2018-05-13T00:25:28.607Z,84.82
2018-05-13T00:26:28.335Z,84.28
2018-05-13T00:27:28.322Z,84.53
2018-05-13T00:28:28.576Z,84.72
2018-05-13T00:29:28.302Z,84.63
2018-05-13T00:30:28.562Z,84.05
2018-05-13T00:31:28.537Z,84.05
2018-05-13T00:32:28.534Z,84.25
2018-05-13T00:33:28.252Z,83.38
2018-05-13T00:34:28.241Z,83.38
2018-05-13T00:35:28.231Z,81.37
2018-05-13T00:36:28.484Z,81.95
2018-05-13T00:37:28.212Z,82.42
2018-05-13T00:38:28.465Z,80.89
2018-05-13T00:39:28.448Z,81.56
2018-05-13T00:40:28.174Z,80.79
2018-05-13T00:41:28.428Z,80.79
2018-05-13T00:42:28.151Z,81.37
2018-05-13T00:43:28.140Z,81.46
2018-05-13T00:44:28.134Z,81.27
2018-05-13T00:45:28.389Z,81.37
2018-05-13T00:46:28.109Z,81.95
2018-05-13T00:47:28.361Z,82.42
2018-05-13T00:48:28.084Z,82.04
2018-05-13T00:49:28.338Z,81.85
2018-05-13T00:50:28.326Z,81.95
2018-05-13T00:51:28.049Z,81.95
2018-05-13T00:52:28.038Z,80.89
2018-05-13T00:53:28.298Z,81.27
2018-05-13T00:54:28.013Z,80.89
2018-05-13T00:55:28.269Z,80.99
2018-05-13T00:56:28.258Z,81.08
2018-05-13T00:57:27.981Z,80.6
2018-05-13T00:58:28.236Z,80.6
2018-05-13T00:59:28.225Z,81.46
2018-05-13T01:00:28.215Z,81.46
2018-05-13T01:01:28.198Z,81.66
2018-05-13T01:02:28.191Z,81.56
2018-05-13T01:03:27.910Z,81.08
2018-05-13T01:04:28.165Z,81.18
2018-05-13T01:05:28.152Z,81.08
2018-05-13T01:06:27.873Z,80.51
2018-05-13T01:07:27.865Z,80.32
2018-05-13T01:08:27.855Z,80.7
2018-05-13T01:09:28.126Z,80.03
2018-05-13T01:10:27.829Z,79.36
2018-05-13T01:11:27.821Z,78.59
2018-05-13T01:12:27.805Z,78.4
2018-05-13T01:13:28.065Z,78.02
2018-05-13T01:14:28.045Z,77.25
2018-05-13T01:15:27.771Z,76.77
2018-05-13T01:16:28.028Z,77.15
2018-05-13T01:17:28.015Z,77.53
2018-05-13T01:18:28.002Z,77.53
2018-05-13T01:19:27.993Z,77.82
2018-05-13T01:20:27.981Z,77.92
2018-05-13T01:21:27.972Z,78.02
2018-05-13T01:22:27.953Z,77.34
2018-05-13T01:23:27.942Z,77.25
2018-05-13T01:24:27.666Z,77.34
2018-05-13T01:25:27.654Z,77.53
2018-05-13T01:26:27.907Z,77.53
2018-05-13T01:27:27.901Z,77.73
2018-05-13T01:28:27.623Z,76.48
2018-05-13T01:29:27.608Z,76.86
2018-05-13T01:30:27.865Z,74.85
2018-05-13T01:31:27.860Z,75.71
2018-05-13T01:32:27.571Z,75.71
2018-05-13T01:33:27.831Z,75.33
2018-05-13T01:34:27.862Z,75.43
2018-05-13T01:35:27.535Z,75.81
2018-05-13T01:36:27.530Z,75.43
2018-05-13T01:37:27.516Z,75.71
2018-05-13T01:38:27.769Z,75.81
2018-05-13T01:39:27.491Z,75.43
2018-05-13T01:40:27.749Z,76.1
2018-05-13T01:41:27.730Z,75.81
2018-05-13T01:42:27.454Z,75.62
2018-05-13T01:43:27.450Z,76.57
2018-05-13T01:44:27.846Z,74.85
2018-05-13T01:45:27.424Z,75.23
2018-05-13T01:46:27.405Z,75.33
2018-05-13T01:47:27.663Z,75.33
2018-05-13T01:48:27.657Z,75.81
2018-05-13T01:49:27.641Z,75.9
2018-05-13T01:50:27.363Z,74.66
2018-05-13T01:51:27.621Z,75.33
2018-05-13T01:52:27.607Z,75.43
2018-05-13T01:53:27.328Z,75.23
2018-05-13T01:54:27.578Z,75.43
2018-05-13T01:55:27.306Z,75.71
2018-05-13T01:56:27.557Z,75.71
2018-05-13T01:57:27.549Z,75.14
2018-05-13T01:58:27.537Z,75.62
2018-05-13T01:59:27.258Z,75.62
2018-05-13T02:00:27.509Z,75.52
2018-05-13T02:01:27.501Z,75.23
2018-05-13T02:02:27.489Z,75.43
2018-05-13T02:03:27.474Z,75.14
2018-05-13T02:04:27.197Z,74.95
2018-05-13T02:05:27.191Z,75.33
2018-05-13T02:06:27.448Z,75.9
2018-05-13T02:07:27.431Z,75.71
2018-05-13T02:08:27.157Z,75.81
2018-05-13T02:09:27.612Z,75.81
2018-05-13T02:10:27.139Z,76
2018-05-13T02:11:27.392Z,76.29
2018-05-13T02:12:27.106Z,75.52
2018-05-13T02:13:27.365Z,75.04
2018-05-13T02:14:27.356Z,75.71
2018-05-13T02:15:27.074Z,75.65
2018-05-13T02:16:27.335Z,75.52
2018-05-13T02:17:27.317Z,75.81
2018-05-13T02:18:27.044Z,75.56
2018-05-13T02:19:27.293Z,75.9
2018-05-13T02:20:27.014Z,75.27
2018-05-13T02:21:27.004Z,75.46
2018-05-13T02:22:27.264Z,75.33
2018-05-13T02:23:27.253Z,74.41
2018-05-13T02:24:26.975Z,75.23
2018-05-13T02:25:26.960Z,75.27
2018-05-13T02:26:27.215Z,74.51
2018-05-13T02:27:27.199Z,74.89
2018-05-13T02:28:27.190Z,75.52
2018-05-13T02:29:26.913Z,75.14
2018-05-13T02:30:26.903Z,74.31
2018-05-13T02:31:26.891Z,74.18
2018-05-13T02:32:27.141Z,74.27
2018-05-13T02:33:26.869Z,74.02
2018-05-13T02:34:27.135Z,72.88
2018-05-13T02:35:26.843Z,73.13
2018-05-13T02:36:27.110Z,73.16
2018-05-13T02:37:27.091Z,73.35
2018-05-13T02:38:26.824Z,73.65
2018-05-13T02:39:27.063Z,73.45
2018-05-13T02:40:27.062Z,72.97
2018-05-13T02:41:27.118Z,72.2
2018-05-13T02:42:27.034Z,73.03
2018-05-13T02:43:26.756Z,72.88
2018-05-13T02:44:27.006Z,72.68
2018-05-13T02:45:26.735Z,72.55
2018-05-13T02:46:26.729Z,72.97
2018-05-13T02:47:26.977Z,73.35
2018-05-13T02:48:26.960Z,72.88
2018-05-13T02:49:26.948Z,72.78
2018-05-13T02:50:26.938Z,72.68
2018-05-13T02:51:26.924Z,73.07
2018-05-13T02:52:26.915Z,73.07
2018-05-13T02:53:26.641Z,73.07
2018-05-13T02:54:26.625Z,73.61
2018-05-13T02:55:26.627Z,73.16
2018-05-13T02:56:26.894Z,71.92
2018-05-13T02:57:26.865Z,72.78
2018-05-13T02:58:26.582Z,72.07
2018-05-13T02:59:26.838Z,72.68
2018-05-13T03:00:26.563Z,72.68
2018-05-13T03:01:26.551Z,72.2
2018-05-13T03:02:26.801Z,71.72
2018-05-13T03:03:26.526Z,72.11
2018-05-13T03:04:26.780Z,71.53
2018-05-13T03:05:26.503Z,71.82
2018-05-13T03:06:26.753Z,70.67
2018-05-13T03:07:26.765Z,71.25
2018-05-13T03:08:26.732Z,71.15
2018-05-13T03:09:26.726Z,71.25
2018-05-13T03:10:26.454Z,70.48
2018-05-13T03:11:26.705Z,70.09
2018-05-13T03:12:26.691Z,70.19
2018-05-13T03:13:26.681Z,70.38
2018-05-13T03:14:26.665Z,70.19
2018-05-13T03:15:26.666Z,70.96
2018-05-13T03:16:26.380Z,71.53
2018-05-13T03:17:26.632Z,70.48
2018-05-13T03:18:26.618Z,70.96
2018-05-13T03:19:26.344Z,71.05
2018-05-13T03:20:26.330Z,71.82
2018-05-13T03:21:26.324Z,71.15
2018-05-13T03:22:26.308Z,71.25
2018-05-13T03:23:26.564Z,71.34
2018-05-13T03:24:26.554Z,71.25
2018-05-13T03:25:26.543Z,71.44
2018-05-13T03:26:26.537Z,71.63
2018-05-13T03:27:26.523Z,69.9
2018-05-13T03:28:26.247Z,70.67
2018-05-13T03:29:26.229Z,70.67
2018-05-13T03:30:26.485Z,70.76
2018-05-13T03:31:26.207Z,71.15
2018-05-13T03:32:26.197Z,70.29
2018-05-13T03:33:26.184Z,69.42
2018-05-13T03:34:26.440Z,70.09
2018-05-13T03:35:26.163Z,69.9
2018-05-13T03:36:26.416Z,70.09
2018-05-13T03:37:26.401Z,70.96
2018-05-13T03:38:26.391Z,71.05
2018-05-13T03:39:26.115Z,71.72
2018-05-13T03:40:26.371Z,71.05
2018-05-13T03:41:26.092Z,70.86
2018-05-13T03:42:26.081Z,70.96
2018-05-13T03:43:26.336Z,70.19
2018-05-13T03:44:26.325Z,70.76
2018-05-13T03:45:26.319Z,71.34
2018-05-13T03:46:26.037Z,71.25
2018-05-13T03:47:26.291Z,71.82
2018-05-13T03:48:26.018Z,71.53
2018-05-13T03:49:26.293Z,70.19
2018-05-13T03:50:26.262Z,69.04
2018-05-13T03:51:26.250Z,69.52
2018-05-13T03:52:26.231Z,69.52
2018-05-13T03:53:25.961Z,69.68
2018-05-13T03:54:26.212Z,70.19
2018-05-13T03:55:25.939Z,70.15
2018-05-13T03:56:26.190Z,70.35
2018-05-13T03:57:26.179Z,70.83
2018-05-13T03:58:26.163Z,70.44
2018-05-13T03:59:26.157Z,69.77
2018-05-13T04:00:25.891Z,69.87
2018-05-13T04:01:25.867Z,69.77
2018-05-13T04:02:26.123Z,69.96
2018-05-13T04:03:25.845Z,70.15
2018-05-13T04:04:25.837Z,70.35
2018-05-13T04:05:26.093Z,70.35
2018-05-13T04:06:26.072Z,70.25
2018-05-13T04:07:25.810Z,69.96
2018-05-13T04:08:25.788Z,69.2
2018-05-13T04:09:26.048Z,69.77
2018-05-13T04:10:25.771Z,69.77
2018-05-13T04:11:26.017Z,69.77
2018-05-13T04:12:25.747Z,69.01
2018-05-13T04:13:25.999Z,68.52
2018-05-13T04:14:25.718Z,68.81
2018-05-13T04:15:25.969Z,68.14
2018-05-13T04:16:25.966Z,68.14
2018-05-13T04:17:25.692Z,68.52
2018-05-13T04:18:25.938Z,68.62
2018-05-13T04:19:25.934Z,68.43
2018-05-13T04:20:25.914Z,68.24
2018-05-13T04:21:25.907Z,67.85
2018-05-13T04:22:25.886Z,68.14
2018-05-13T04:23:25.616Z,68.14
2018-05-13T04:24:25.867Z,68.05
2018-05-13T04:25:25.859Z,68.14
2018-05-13T04:26:25.845Z,67.47
2018-05-13T04:27:25.835Z,67.09
2018-05-13T04:28:25.818Z,66.99
2018-05-13T04:29:25.807Z,66.03
2018-05-13T04:30:25.532Z,66.22
2018-05-13T04:31:25.526Z,65.46
2018-05-13T04:32:25.780Z,64.98
2018-05-13T04:33:25.765Z,64.79
2018-05-13T04:34:25.756Z,64.98
2018-05-13T04:35:25.474Z,64.59
2018-05-13T04:36:25.731Z,65.17
2018-05-13T04:37:25.450Z,65.26
2018-05-13T04:38:25.441Z,64.79
2018-05-13T04:39:25.694Z,64.5
2018-05-13T04:40:25.682Z,64.02
2018-05-13T04:41:25.668Z,63.92
2018-05-13T04:42:25.668Z,63.64
2018-05-13T04:43:25.387Z,64.12
2018-05-13T04:44:25.369Z,63.64
2018-05-13T04:45:25.674Z,64.31
2018-05-13T04:46:25.612Z,64.02
2018-05-13T04:47:25.602Z,64.12
2018-05-13T04:48:25.325Z,63.83
2018-05-13T04:49:25.347Z,64.02
2018-05-13T04:50:25.774Z,64.12
2018-05-13T04:51:25.558Z,64.02
2018-05-13T04:52:25.577Z,63.54
2018-05-13T04:53:25.268Z,63.83
2018-05-13T04:54:25.270Z,63.92
2018-05-13T04:55:25.616Z,63.83
2018-05-13T04:56:25.501Z,63.92
2018-05-13T04:57:25.490Z,64.02
2018-05-13T04:58:25.483Z,63.73
2018-05-13T04:59:25.487Z,64.53
2018-05-13T05:00:25.457Z,65.17
2018-05-13T05:01:25.446Z,65.2
2018-05-13T05:02:25.181Z,65.39
2018-05-13T05:03:25.422Z,64.72
2018-05-13T05:04:25.474Z,64.72
2018-05-13T05:05:25.139Z,65.01
2018-05-13T05:06:25.119Z,65.2
2018-05-13T05:07:25.374Z,65.2
2018-05-13T05:08:25.575Z,65.68
2018-05-13T05:09:25.170Z,65.39
2018-05-13T05:10:25.341Z,65.39
2018-05-13T05:11:25.332Z,65.68
2018-05-13T05:12:25.321Z,66.16
2018-05-13T05:13:25.045Z,66.35
2018-05-13T05:14:25.042Z,66.16
2018-05-13T05:15:25.024Z,66.55
2018-05-13T05:16:25.012Z,67.25
2018-05-13T05:17:25.260Z,67.63
2018-05-13T05:18:25.255Z,68.02
2018-05-13T05:19:25.262Z,68.3
2018-05-13T05:20:25.235Z,68.3
2018-05-13T05:21:25.218Z,68.98
2018-05-13T05:22:24.946Z,69.17
2018-05-13T05:23:25.198Z,68.88
2018-05-13T05:24:24.924Z,69.56
2018-05-13T05:25:25.179Z,70.13
2018-05-13T05:26:24.905Z,69.93
2018-05-13T05:27:24.894Z,69.93
2018-05-13T05:28:25.149Z,70.23
2018-05-13T05:29:25.142Z,70.13
2018-05-13T05:30:25.123Z,70.9
2018-05-13T05:31:24.849Z,71.37
2018-05-13T05:32:24.838Z,71.66
2018-05-13T05:33:25.090Z,71.86
2018-05-13T05:34:24.818Z,71.86
2018-05-13T05:35:24.807Z,72.24
2018-05-13T05:36:24.795Z,72.24
2018-05-13T05:37:24.783Z,71.47
2018-05-13T05:38:25.039Z,71.76
2018-05-13T05:39:25.026Z,71.57
2018-05-13T05:40:24.753Z,71.86
2018-05-13T05:41:25.086Z,72.05
2018-05-13T05:42:24.729Z,71.19
2018-05-13T05:43:24.986Z,70.9
2018-05-13T05:44:24.977Z,70.51
2018-05-13T05:45:24.966Z,70.51
2018-05-13T05:46:24.686Z,70.42
2018-05-13T05:47:24.678Z,70.03
2018-05-13T05:48:25.061Z,71.12
2018-05-13T05:49:24.660Z,71.66
2018-05-13T05:50:24.646Z,71.28
2018-05-13T05:51:24.635Z,71.76
2018-05-13T05:52:24.621Z,71.31
2018-05-13T05:53:24.875Z,71.7
2018-05-13T05:54:24.864Z,71.98
2018-05-13T05:55:24.590Z,72.37
2018-05-13T05:56:24.582Z,73.04
2018-05-13T05:57:24.569Z,73.33
2018-05-13T05:58:24.829Z,73.62
2018-05-13T05:59:24.820Z,73.14
2018-05-13T06:00:24.573Z,73.14
2018-05-13T06:01:24.802Z,73.52
2018-05-13T06:02:24.784Z,73.43
2018-05-13T06:03:24.505Z,71.41
2018-05-13T06:04:24.761Z,71.83
2018-05-13T06:05:24.486Z,72.22
2018-05-13T06:06:24.745Z,72.99
2018-05-13T06:07:24.728Z,73.08
2018-05-13T06:08:24.724Z,73.56
2018-05-13T06:09:24.446Z,74.27
2018-05-13T06:10:24.903Z,75.32
2018-05-13T06:11:24.494Z,76.09
2018-05-13T06:12:24.782Z,76.57
2018-05-13T06:13:24.675Z,75.81
2018-05-13T06:14:24.397Z,76
2018-05-13T06:15:24.650Z,75.52
2018-05-13T06:16:24.380Z,76.96
2018-05-13T06:17:24.365Z,77.92
2018-05-13T06:18:24.625Z,78.5
2018-05-13T06:19:24.348Z,78.59
2018-05-13T06:20:24.608Z,79.17
2018-05-13T06:21:24.328Z,79.88
2018-05-13T06:22:24.319Z,79.4
2018-05-13T06:23:24.311Z,79.6
2018-05-13T06:24:24.297Z,80.46
2018-05-13T06:25:24.561Z,81.23
2018-05-13T06:26:24.278Z,80.65
2018-05-13T06:27:24.533Z,81.04
2018-05-13T06:28:24.525Z,81.32
2018-05-13T06:29:24.515Z,80.55
2018-05-13T06:30:24.501Z,81.13
2018-05-13T06:31:24.238Z,83.63
2018-05-13T06:32:24.485Z,83.86
2018-05-13T06:33:24.211Z,84.25
2018-05-13T06:34:24.473Z,85.11
2018-05-13T06:35:24.195Z,85.88
2018-05-13T06:36:24.189Z,86.18
2018-05-13T06:37:24.439Z,85.69
2018-05-13T06:38:24.454Z,85.02
2018-05-13T06:39:24.419Z,87.04
2018-05-13T06:40:24.144Z,85.98
2018-05-13T06:41:24.402Z,86.56
2018-05-13T06:42:24.134Z,86.08
2018-05-13T06:43:24.136Z,85.78
2018-05-13T06:44:24.119Z,85.78
2018-05-13T06:45:24.101Z,87.23
2018-05-13T06:46:24.355Z,87.33
2018-05-13T06:47:24.348Z,87.33
2018-05-13T06:48:24.340Z,87.71
2018-05-13T06:49:24.090Z,87.71
2018-05-13T06:50:24.059Z,88.96
2018-05-13T06:51:24.169Z,89.73
2018-05-13T06:52:24.305Z,90.5
2018-05-13T06:53:24.032Z,90.79
2018-05-13T06:54:24.288Z,92.71
2018-05-13T06:55:24.280Z,92.76
2018-05-13T06:56:24.277Z,92.43
2018-05-13T06:57:24.394Z,90.69
2018-05-13T06:58:23.987Z,90.12
2018-05-13T06:59:24.242Z,89.92
2018-05-13T07:00:23.971Z,90.12
2018-05-13T07:01:24.231Z,90.21
2018-05-13T07:02:24.216Z,90.35
2018-05-13T07:03:23.941Z,91.51
2018-05-13T07:04:24.208Z,92.18
2018-05-13T07:05:24.189Z,91.6
2018-05-13T07:06:24.196Z,92.38
2018-05-13T07:07:23.906Z,92.95
2018-05-13T07:08:23.895Z,92.76
2018-05-13T07:09:24.186Z,94.2
2018-05-13T07:10:24.332Z,94.2
2018-05-13T07:11:24.157Z,94.87
2018-05-13T07:12:23.886Z,95.26
2018-05-13T07:13:23.860Z,94.49
2018-05-13T07:14:24.109Z,95.02
2018-05-13T07:15:23.840Z,93.38
2018-05-13T07:16:24.240Z,92.8
2018-05-13T07:17:23.818Z,93.87
2018-05-13T07:18:23.814Z,94.54
2018-05-13T07:19:23.800Z,95.02
2018-05-13T07:20:24.083Z,96.94
2018-05-13T07:21:23.786Z,95.5
2018-05-13T07:22:24.250Z,95.6
2018-05-13T07:23:23.771Z,95.4
2018-05-13T07:24:23.764Z,96.08
2018-05-13T07:25:24.016Z,95.02
2018-05-13T07:26:24.007Z,94.92
2018-05-13T07:27:23.733Z,95.31
2018-05-13T07:28:23.729Z,99.11
2018-05-13T07:29:23.984Z,99.99
2018-05-13T07:30:23.972Z,99.99
2018-05-13T07:31:23.702Z,99.99
2018-05-13T07:32:23.957Z,99.99
2018-05-13T07:33:23.689Z,99.99
2018-05-13T07:34:23.684Z,99.99
2018-05-13T07:35:23.676Z,99.99
2018-05-13T07:36:23.938Z,99.99
2018-05-13T07:37:23.666Z,99.99
2018-05-13T07:38:23.924Z,99.99
2018-05-13T07:39:23.654Z,99.55
2018-05-13T07:40:23.648Z,98.88
2018-05-13T07:41:23.916Z,99.41
2018-05-13T07:42:23.642Z,99.99
2018-05-13T07:43:24.061Z,99.36
2018-05-13T07:44:23.895Z,96.84
2018-05-13T07:45:23.887Z,95.87
2018-05-13T07:46:23.880Z,92.62
2018-05-13T07:47:23.877Z,92.04
2018-05-13T07:48:23.877Z,88.4
2018-05-13T07:49:23.604Z,86.4
2018-05-13T07:50:23.864Z,85.38
2018-05-13T07:51:23.595Z,80.17
2018-05-13T07:52:23.858Z,81.53
2018-05-13T07:53:23.855Z,78.71
2018-05-13T07:54:23.871Z,76.67
2018-05-13T07:55:23.851Z,76.97
2018-05-13T07:56:23.581Z,74.76
2018-05-13T07:57:23.575Z,72.24
2018-05-13T07:58:23.836Z,73.02
2018-05-13T07:59:23.837Z,72.2
2018-05-13T08:00:23.570Z,70.29
2018-05-13T08:01:23.829Z,68.84
2018-05-13T08:02:23.826Z,70.49
2018-05-13T08:03:23.559Z,69.71
2018-05-13T08:04:23.822Z,69.74
2018-05-13T08:05:23.552Z,68.57
2018-05-13T08:06:23.816Z,66.73
2018-05-13T08:07:23.817Z,67.5
2018-05-13T08:08:23.544Z,66.6
2018-05-13T08:09:23.547Z,66.4
2018-05-13T08:10:23.540Z,66.53
2018-05-13T08:11:23.804Z,67.38
2018-05-13T08:12:23.545Z,67.57
2018-05-13T08:13:23.805Z,67.02
2018-05-13T08:14:23.534Z,66.34
2018-05-13T08:15:23.534Z,66.63
2018-05-13T08:16:23.800Z,65.88
2018-05-13T08:17:23.527Z,65.11
2018-05-13T08:18:23.796Z,64.52
2018-05-13T08:19:23.529Z,62.29
2018-05-13T08:20:23.611Z,64.81
2018-05-13T08:21:23.792Z,66.37
2018-05-13T08:22:23.792Z,65.79
2018-05-13T08:23:23.793Z,64.26
2018-05-13T08:24:23.787Z,65.46
2018-05-13T08:25:23.521Z,65.14
2018-05-13T08:26:23.518Z,66.56
2018-05-13T08:27:23.779Z,67.08
2018-05-13T08:28:23.780Z,67.38
2018-05-13T08:29:23.516Z,68.02
2018-05-13T08:30:23.520Z,69.45
2018-05-13T08:31:23.511Z,70.51
2018-05-13T08:32:23.509Z,70.32
2018-05-13T08:33:23.509Z,69.54
2018-05-13T08:34:23.771Z,70.45
2018-05-13T08:35:23.769Z,70.45
2018-05-13T08:36:23.765Z,70.64
2018-05-13T08:37:23.768Z,71.12
2018-05-13T08:38:23.770Z,71.19
2018-05-13T08:39:23.494Z,72.41
2018-05-13T08:40:23.959Z,73.48
2018-05-13T08:41:23.488Z,74.84
2018-05-13T08:42:23.749Z,74.93
2018-05-13T08:43:23.744Z,74.22
2018-05-13T08:44:23.479Z,75.15
2018-05-13T08:45:23.738Z,76.6
2018-05-13T08:46:23.479Z,76.12
2018-05-13T08:47:23.734Z,77.24
2018-05-13T08:48:23.513Z,79.17
2018-05-13T08:49:23.461Z,78.05
2018-05-13T08:50:23.458Z,78.21
2018-05-13T08:51:23.451Z,81.21
2018-05-13T08:52:23.719Z,78.5
2018-05-13T08:53:23.715Z,79.95
2018-05-13T08:54:23.445Z,79.8
2018-05-13T08:55:23.438Z,79.47
2018-05-13T08:56:23.438Z,78.69
2018-05-13T08:57:23.428Z,80.24
2018-05-13T08:58:23.424Z,77.44
2018-05-13T08:59:23.688Z,80.05
2018-05-13T09:00:23.419Z,77.34
2018-05-13T09:01:23.412Z,78.79
2018-05-13T09:02:23.675Z,80.59
2018-05-13T09:03:23.406Z,82.72
2018-05-13T09:04:23.665Z,83.4
2018-05-13T09:05:23.399Z,81.75
2018-05-13T09:06:23.400Z,81.75
2018-05-13T09:07:23.387Z,82.04
2018-05-13T09:08:23.917Z,79.82
2018-05-13T09:09:23.377Z,80.46
2018-05-13T09:10:23.638Z,80.74
2018-05-13T09:11:23.650Z,79.43
2018-05-13T09:12:23.362Z,80.11
2018-05-13T09:13:23.835Z,79.82
2018-05-13T09:14:23.352Z,82.43
2018-05-13T09:15:23.352Z,80.79
2018-05-13T09:16:23.358Z,82.14
2018-05-13T09:17:23.610Z,84.17
2018-05-13T09:18:23.601Z,79.72
2018-05-13T09:19:23.600Z,81.95
2018-05-13T09:20:23.594Z,80.98
2018-05-13T09:21:23.802Z,80.05
2018-05-13T09:22:23.578Z,80.34
2018-05-13T09:23:23.584Z,79.66
2018-05-13T09:24:23.570Z,82.23
2018-05-13T09:25:23.562Z,83.2
2018-05-13T09:26:23.566Z,82.33
2018-05-13T09:27:23.300Z,81.65
2018-05-13T09:28:23.294Z,81.85
2018-05-13T09:29:23.283Z,84.75
2018-05-13T09:30:23.550Z,87.55
2018-05-13T09:31:23.681Z,86.69
2018-05-13T09:32:23.529Z,84.75
2018-05-13T09:33:23.534Z,86.88
2018-05-13T09:34:23.258Z,85.62
2018-05-13T09:35:23.282Z,85.14
2018-05-13T09:36:23.242Z,84.75
2018-05-13T09:37:23.504Z,84.17
2018-05-13T09:38:23.443Z,84.75
2018-05-13T09:39:23.524Z,86.3
2018-05-13T09:40:23.228Z,88.91
2018-05-13T09:41:23.501Z,87.46
2018-05-13T09:42:23.220Z,85.24
2018-05-13T09:43:23.212Z,85.91
2018-05-13T09:44:23.466Z,87.36
2018-05-13T09:45:23.194Z,84.66
2018-05-13T09:46:23.459Z,81.65
2018-05-13T09:47:23.454Z,81.56
2018-05-13T09:48:23.469Z,86.01
2018-05-13T09:49:23.179Z,83.69
2018-05-13T09:50:23.448Z,83.4
2018-05-13T09:51:23.713Z,81.95
2018-05-13T09:52:23.432Z,85.24
2018-05-13T09:53:23.159Z,84.66
2018-05-13T09:54:23.452Z,85.33
2018-05-13T09:55:23.408Z,84.66
2018-05-13T09:56:23.410Z,81.95
2018-05-13T09:57:23.408Z,82.81
2018-05-13T09:58:23.145Z,84.66
2018-05-13T09:59:23.397Z,84.17
2018-05-13T10:00:23.397Z,85.91
2018-05-13T10:01:23.382Z,82.04
2018-05-13T10:02:23.378Z,82.72
2018-05-13T10:03:23.101Z,82.14
2018-05-13T10:04:23.119Z,83.69
2018-05-13T10:05:23.360Z,82.04
2018-05-13T10:06:23.359Z,83.34
2018-05-13T10:07:23.085Z,83.25
2018-05-13T10:08:23.344Z,81.7
2018-05-13T10:09:23.425Z,82.66
2018-05-13T10:10:23.069Z,80.73
2018-05-13T10:11:23.333Z,79.95
2018-05-13T10:12:23.063Z,80.82
2018-05-13T10:13:23.053Z,82.47
2018-05-13T10:14:23.314Z,81.21
2018-05-13T10:15:23.313Z,82.08
2018-05-13T10:16:23.038Z,82.18
2018-05-13T10:17:23.306Z,81.35
2018-05-13T10:18:23.338Z,83
2018-05-13T10:19:23.035Z,81.15
2018-05-13T10:20:23.293Z,79.99
2018-05-13T10:21:23.022Z,79.99
2018-05-13T10:22:23.289Z,77.9
2018-05-13T10:23:23.278Z,77.51
2018-05-13T10:24:23.278Z,75.16
2018-05-13T10:25:23.272Z,74.04
2018-05-13T10:26:22.998Z,71.94
2018-05-13T10:27:23.376Z,68.87
2018-05-13T10:28:23.290Z,69.87
2018-05-13T10:29:23.275Z,70.49
2018-05-13T10:30:22.996Z,69.06
2018-05-13T10:31:23.261Z,68.96
2018-05-13T10:32:23.257Z,70.52
2018-05-13T10:33:22.999Z,72.72
2018-05-13T10:34:23.258Z,70.49
2018-05-13T10:35:22.999Z,70.49
2018-05-13T10:36:23.379Z,69.74
2018-05-13T10:37:23.211Z,68.19
2018-05-13T10:38:23.260Z,70.97
2018-05-13T10:39:23.273Z,70.58
2018-05-13T10:40:23.264Z,70.68
2018-05-13T10:41:23.259Z,72.88
2018-05-13T10:42:23.308Z,71.33
2018-05-13T10:43:23.261Z,73
2018-05-13T10:44:23.267Z,75.74
2018-05-13T10:45:23.264Z,78.46
2018-05-13T10:46:22.994Z,79.04
2018-05-13T10:47:23.005Z,78.81
2018-05-13T10:48:23.261Z,78.56
2018-05-13T10:49:22.992Z,79.72
2018-05-13T10:50:22.993Z,78.36
2018-05-13T10:51:22.990Z,79.14
2018-05-13T10:52:22.986Z,78.75
2018-05-13T10:53:23.032Z,78.36
2018-05-13T10:54:22.982Z,79.39
2018-05-13T10:55:23.254Z,78.46
2018-05-13T10:56:23.249Z,80.07
2018-05-13T10:57:23.250Z,81.29
2018-05-13T10:58:23.251Z,81.2
2018-05-13T10:59:22.979Z,81.83
2018-05-13T11:00:23.260Z,83.18
2018-05-13T11:01:22.975Z,85.86
2018-05-13T11:02:23.232Z,86.63
2018-05-13T11:03:23.232Z,85.76
2018-05-13T11:04:23.227Z,85.22
2018-05-13T11:05:23.226Z,83.86
2018-05-13T11:06:22.970Z,83.81
2018-05-13T11:07:22.972Z,84.1
2018-05-13T11:08:23.222Z,85.41
2018-05-13T11:09:23.217Z,86.38
2018-05-13T11:10:23.019Z,87.21
2018-05-13T11:11:23.169Z,88.53
2018-05-13T11:12:23.210Z,91.91
2018-05-13T11:13:22.957Z,94.09
2018-05-13T11:14:23.442Z,97.47
2018-05-13T11:15:22.924Z,95.83
2018-05-13T11:16:23.189Z,97.52
2018-05-13T11:17:22.944Z,99.74
2018-05-13T11:18:23.186Z,99.99
2018-05-13T11:19:23.177Z,99.99
2018-05-13T11:20:23.191Z,99.99
2018-05-13T11:21:22.923Z,99.99
2018-05-13T11:22:22.920Z,99.99
2018-05-13T11:23:22.897Z,99.99
2018-05-13T11:24:23.154Z,99.99
2018-05-13T11:25:22.886Z,99.99
2018-05-13T11:26:23.149Z,99.99
2018-05-13T11:27:23.146Z,99.99
2018-05-13T11:28:23.139Z,99.99
2018-05-13T11:29:22.871Z,99.99
2018-05-13T11:30:23.121Z,99.99
2018-05-13T11:31:23.125Z,99.99
2018-05-13T11:32:22.850Z,99.99
2018-05-13T11:33:23.112Z,99.99
2018-05-13T11:34:23.130Z,99.99
2018-05-13T11:35:22.838Z,99.99
2018-05-13T11:36:23.107Z,99.99
2018-05-13T11:37:23.087Z,99.99
2018-05-13T11:38:23.088Z,99.99
2018-05-13T11:39:22.812Z,99.99
2018-05-13T11:40:23.085Z,99.99
2018-05-13T11:41:22.853Z,99.99
2018-05-13T11:42:22.798Z,99.99
2018-05-13T11:43:23.057Z,99.99
2018-05-13T11:44:23.058Z,99.99
2018-05-13T11:45:23.046Z,99.99
2018-05-13T11:46:23.042Z,99.99
2018-05-13T11:47:23.044Z,99.99
2018-05-13T11:48:23.032Z,99.99
2018-05-13T11:49:23.032Z,99.99
2018-05-13T11:50:23.228Z,99.99
2018-05-13T11:51:23.018Z,99.99
2018-05-13T11:52:23.027Z,99.99
2018-05-13T11:53:22.745Z,99.99
2018-05-13T11:54:22.741Z,99.99
2018-05-13T11:55:23.001Z,99.99
2018-05-13T11:56:23.066Z,99.99
2018-05-13T11:57:22.985Z,99.99
2018-05-13T11:58:22.993Z,99.99
2018-05-13T11:59:22.981Z,99.99
2018-05-13T12:00:22.982Z,99.99
2018-05-13T12:01:22.703Z,99.99
2018-05-13T12:02:23.015Z,99.99
2018-05-13T12:03:22.692Z,99.99
2018-05-13T12:04:22.980Z,99.99
2018-05-13T12:05:22.691Z,99.99
2018-05-13T12:06:22.689Z,99.99
2018-05-13T12:07:22.936Z,99.99
2018-05-13T12:08:22.963Z,99.99
2018-05-13T12:09:22.928Z,99.99
2018-05-13T12:10:22.859Z,99.99
2018-05-13T12:11:22.917Z,99.99
2018-05-13T12:12:22.916Z,99.99
2018-05-13T12:13:22.640Z,99.99
2018-05-13T12:14:22.897Z,99.99
2018-05-13T12:15:22.907Z,99.99
2018-05-13T12:16:22.623Z,99.99
2018-05-13T12:17:22.885Z,99.99
2018-05-13T12:18:22.898Z,99.99
2018-05-13T12:19:22.904Z,99.99
2018-05-13T12:20:22.885Z,99.99
2018-05-13T12:21:22.599Z,99.99
2018-05-13T12:22:22.594Z,99.99
2018-05-13T12:23:22.881Z,99.99
2018-05-13T12:24:22.579Z,99.99
2018-05-13T12:25:22.845Z,99.99
2018-05-13T12:26:22.837Z,99.99
2018-05-13T12:27:22.831Z,99.99
2018-05-13T12:28:22.914Z,99.99
2018-05-13T12:29:22.561Z,99.99
2018-05-13T12:30:22.812Z,99.99
2018-05-13T12:31:22.865Z,99.99
2018-05-13T12:32:22.530Z,99.99
2018-05-13T12:33:22.796Z,99.99
2018-05-13T12:34:22.779Z,99.99
2018-05-13T12:35:22.516Z,99.99
2018-05-13T12:36:22.768Z,99.99
2018-05-13T12:37:22.757Z,99.99
2018-05-13T12:38:22.759Z,99.99
2018-05-13T12:39:22.477Z,99.99
2018-05-13T12:40:22.730Z,99.99
2018-05-13T12:41:22.731Z,99.99
2018-05-13T12:42:22.456Z,99.99
2018-05-13T12:43:22.707Z,99.99
2018-05-13T12:44:22.704Z,99.99
2018-05-13T12:45:22.692Z,99.99
2018-05-13T12:46:22.687Z,99.99
2018-05-13T12:47:22.415Z,99.99
2018-05-13T12:48:22.667Z,99.92
2018-05-13T12:49:22.392Z,98.58
2018-05-13T12:50:22.653Z,99.99
2018-05-13T12:51:22.765Z,99.25
2018-05-13T12:52:22.378Z,98.39
2018-05-13T12:53:22.621Z,96.99
2018-05-13T12:54:22.348Z,97.57